sensor_id;sensor_type;location;lat;lon;timestamp;pressure;altitude;pressure_sealevel;temperature;humidity
59417;BME280;45222;52.458;20.914;2023-12-20T00:00:22;99837.67;;;5.19;97.43
59417;BME280;45222;52.458;20.914;2023-12-20T00:04:30;99837.88;;;5.18;97.34
59417;BME280;45222;52.458;20.914;2023-12-20T00:08:34;99836.81;;;5.18;97.45
59417;BME280;45222;52.458;20.914;2023-12-20T00:12:22;99835.54;;;5.19;97.68
59417;BME280;45222;52.458;20.914;2023-12-20T00:16:11;99831.95;;;5.21;97.67
59417;BME280;45222;52.458;20.914;2023-12-20T00:19:59;99823.44;;;5.22;97.60
59417;BME280;45222;52.458;20.914;2023-12-20T00:23:47;99826.75;;;5.23;97.94
59417;BME280;45222;52.458;20.914;2023-12-20T00:27:34;99827.20;;;5.25;97.91
59417;BME280;45222;52.458;20.914;2023-12-20T00:31:22;99818.15;;;5.27;97.85
59417;BME280;45222;52.458;20.914;2023-12-20T00:35:10;99823.52;;;5.30;97.94
59417;BME280;45222;52.458;20.914;2023-12-20T00:38:58;99816.98;;;5.30;97.82
59417;BME280;45222;52.458;20.914;2023-12-20T00:42:46;99815.66;;;5.28;97.76
59417;BME280;45222;52.458;20.914;2023-12-20T00:46:34;99812.88;;;5.27;97.78
59417;BME280;45222;52.458;20.914;2023-12-20T00:50:22;99805.48;;;5.26;98.05
59417;BME280;45222;52.458;20.914;2023-12-20T00:54:10;99808.59;;;5.28;97.79
59417;BME280;45222;52.458;20.914;2023-12-20T00:57:58;99811.73;;;5.29;97.99
59417;BME280;45222;52.458;20.914;2023-12-20T01:01:47;99806.94;;;5.30;98.10
59417;BME280;45222;52.458;20.914;2023-12-20T01:05:35;99802.65;;;5.32;98.39
59417;BME280;45222;52.458;20.914;2023-12-20T01:09:22;99799.59;;;5.33;98.29
59417;BME280;45222;52.458;20.914;2023-12-20T01:13:13;99803.58;;;5.35;98.29
59417;BME280;45222;52.458;20.914;2023-12-20T01:17:01;99797.92;;;5.35;98.18
59417;BME280;45222;52.458;20.914;2023-12-20T01:20:48;99801.16;;;5.34;98.02
59417;BME280;45222;52.458;20.914;2023-12-20T01:24:37;99800.14;;;5.33;98.03
59417;BME280;45222;52.458;20.914;2023-12-20T01:28:24;99803.84;;;5.33;98.04
59417;BME280;45222;52.458;20.914;2023-12-20T01:32:12;99793.76;;;5.33;98.27
59417;BME280;45222;52.458;20.914;2023-12-20T01:36:01;99782.82;;;5.34;98.26
59417;BME280;45222;52.458;20.914;2023-12-20T01:39:49;99784.89;;;5.35;98.17
59417;BME280;45222;52.458;20.914;2023-12-20T01:43:37;99776.57;;;5.36;98.31
59417;BME280;45222;52.458;20.914;2023-12-20T01:47:25;99776.70;;;5.38;98.23
59417;BME280;45222;52.458;20.914;2023-12-20T01:51:13;99778.61;;;5.39;98.19
59417;BME280;45222;52.458;20.914;2023-12-20T01:55:02;99773.73;;;5.37;98.31
59417;BME280;45222;52.458;20.914;2023-12-20T01:58:57;99772.77;;;5.34;97.93
59417;BME280;45222;52.458;20.914;2023-12-20T02:02:46;99770.48;;;5.34;98.00
59417;BME280;45222;52.458;20.914;2023-12-20T02:06:35;99769.40;;;5.34;98.00
59417;BME280;45222;52.458;20.914;2023-12-20T02:10:23;99764.61;;;5.35;98.08
59417;BME280;45222;52.458;20.914;2023-12-20T02:14:11;99764.33;;;5.38;98.10
59417;BME280;45222;52.458;20.914;2023-12-20T02:18:00;99759.52;;;5.40;98.26
59417;BME280;45222;52.458;20.914;2023-12-20T02:21:48;99752.94;;;5.42;98.25
59417;BME280;45222;52.458;20.914;2023-12-20T02:25:36;99753.55;;;5.44;98.13
59417;BME280;45222;52.458;20.914;2023-12-20T02:29:24;99757.92;;;5.45;98.16
59417;BME280;45222;52.458;20.914;2023-12-20T02:33:13;99753.91;;;5.43;98.00
59417;BME280;45222;52.458;20.914;2023-12-20T02:37:01;99749.14;;;5.44;97.80
59417;BME280;45222;52.458;20.914;2023-12-20T02:40:49;99739.08;;;5.44;97.86
59417;BME280;45222;52.458;20.914;2023-12-20T02:44:37;99733.38;;;5.46;97.92
59417;BME280;45222;52.458;20.914;2023-12-20T02:48:25;99724.15;;;5.47;98.02
59417;BME280;45222;52.458;20.914;2023-12-20T02:52:13;99738.73;;;5.48;98.06
59417;BME280;45222;52.458;20.914;2023-12-20T02:56:00;99739.14;;;5.47;97.85
59417;BME280;45222;52.458;20.914;2023-12-20T02:59:49;99727.05;;;5.45;97.73
59417;BME280;45222;52.458;20.914;2023-12-20T03:03:36;99725.04;;;5.42;97.54
59417;BME280;45222;52.458;20.914;2023-12-20T03:07:27;99719.25;;;5.42;97.69
59417;BME280;45222;52.458;20.914;2023-12-20T03:11:15;99714.14;;;5.41;97.78
59417;BME280;45222;52.458;20.914;2023-12-20T03:15:03;99718.02;;;5.42;97.73
59417;BME280;45222;52.458;20.914;2023-12-20T03:18:52;99714.61;;;5.42;97.95
59417;BME280;45222;52.458;20.914;2023-12-20T03:22:40;99708.02;;;5.45;97.96
59417;BME280;45222;52.458;20.914;2023-12-20T03:26:28;99718.10;;;5.44;97.66
59417;BME280;45222;52.458;20.914;2023-12-20T03:30:16;99722.30;;;5.40;97.66
59417;BME280;45222;52.458;20.914;2023-12-20T03:34:03;99716.73;;;5.38;97.45
59417;BME280;45222;52.458;20.914;2023-12-20T03:37:52;99706.53;;;5.37;97.62
59417;BME280;45222;52.458;20.914;2023-12-20T03:41:40;99709.86;;;5.38;97.80
59417;BME280;45222;52.458;20.914;2023-12-20T03:45:28;99704.41;;;5.37;97.75
59417;BME280;45222;52.458;20.914;2023-12-20T03:49:16;99705.06;;;5.39;97.79
59417;BME280;45222;52.458;20.914;2023-12-20T03:53:04;99711.26;;;5.38;97.78
59417;BME280;45222;52.458;20.914;2023-12-20T03:56:52;99712.59;;;5.35;97.64
59417;BME280;45222;52.458;20.914;2023-12-20T04:00:40;99708.94;;;5.34;97.64
59417;BME280;45222;52.458;20.914;2023-12-20T04:04:28;99697.86;;;5.33;97.54
59417;BME280;45222;52.458;20.914;2023-12-20T04:08:16;99692.36;;;5.34;97.82
59417;BME280;45222;52.458;20.914;2023-12-20T04:12:04;99694.30;;;5.34;97.72
59417;BME280;45222;52.458;20.914;2023-12-20T04:15:51;99691.11;;;5.35;98.03
59417;BME280;45222;52.458;20.914;2023-12-20T04:19:39;99691.08;;;5.31;97.88
59417;BME280;45222;52.458;20.914;2023-12-20T04:23:27;99692.06;;;5.28;97.68
59417;BME280;45222;52.458;20.914;2023-12-20T04:27:14;99692.86;;;5.26;97.63
59417;BME280;45222;52.458;20.914;2023-12-20T04:31:03;99685.27;;;5.25;97.73
59417;BME280;45222;52.458;20.914;2023-12-20T04:34:51;99688.80;;;5.26;97.78
59417;BME280;45222;52.458;20.914;2023-12-20T04:38:39;99693.91;;;5.26;97.73
59417;BME280;45222;52.458;20.914;2023-12-20T04:42:26;99692.43;;;5.28;98.06
59417;BME280;45222;52.458;20.914;2023-12-20T04:46:14;99690.27;;;5.29;97.85
59417;BME280;45222;52.458;20.914;2023-12-20T04:50:02;99694.17;;;5.28;97.88
59417;BME280;45222;52.458;20.914;2023-12-20T04:53:51;99688.84;;;5.24;97.80
59417;BME280;45222;52.458;20.914;2023-12-20T04:57:39;99694.89;;;5.23;97.82
59417;BME280;45222;52.458;20.914;2023-12-20T05:01:27;99692.45;;;5.22;97.96
59417;BME280;45222;52.458;20.914;2023-12-20T05:05:16;99690.32;;;5.22;98.01
59417;BME280;45222;52.458;20.914;2023-12-20T05:09:04;99684.70;;;5.22;97.90
59417;BME280;45222;52.458;20.914;2023-12-20T05:12:52;99684.31;;;5.23;97.93
59417;BME280;45222;52.458;20.914;2023-12-20T05:16:40;99686.91;;;5.25;97.84
59417;BME280;45222;52.458;20.914;2023-12-20T05:20:28;99674.23;;;5.24;97.98
59417;BME280;45222;52.458;20.914;2023-12-20T05:24:16;99673.77;;;5.22;97.63
59417;BME280;45222;52.458;20.914;2023-12-20T05:28:04;99674.50;;;5.21;97.69
59417;BME280;45222;52.458;20.914;2023-12-20T05:31:52;99679.41;;;5.22;97.81
59417;BME280;45222;52.458;20.914;2023-12-20T05:35:40;99677.27;;;5.23;97.96
59417;BME280;45222;52.458;20.914;2023-12-20T05:39:28;99675.96;;;5.25;97.85
59417;BME280;45222;52.458;20.914;2023-12-20T05:43:17;99672.36;;;5.27;97.95
59417;BME280;45222;52.458;20.914;2023-12-20T05:47:05;99671.55;;;5.25;97.90
59417;BME280;45222;52.458;20.914;2023-12-20T05:50:53;99668.88;;;5.21;97.80
59417;BME280;45222;52.458;20.914;2023-12-20T05:54:41;99667.92;;;5.18;97.98
59417;BME280;45222;52.458;20.914;2023-12-20T05:58:29;99668.86;;;5.17;97.94
59417;BME280;45222;52.458;20.914;2023-12-20T06:02:17;99667.11;;;5.17;98.27
59417;BME280;45222;52.458;20.914;2023-12-20T06:06:08;99664.39;;;5.18;98.10
59417;BME280;45222;52.458;20.914;2023-12-20T06:09:55;99661.16;;;5.20;98.42
59417;BME280;45222;52.458;20.914;2023-12-20T06:13:43;99666.25;;;5.21;98.41
59417;BME280;45222;52.458;20.914;2023-12-20T06:17:31;99669.87;;;5.18;98.15
59417;BME280;45222;52.458;20.914;2023-12-20T06:21:19;99671.75;;;5.15;98.10
59417;BME280;45222;52.458;20.914;2023-12-20T06:25:08;99670.02;;;5.14;97.96
59417;BME280;45222;52.458;20.914;2023-12-20T06:28:56;99670.55;;;5.14;98.22
59417;BME280;45222;52.458;20.914;2023-12-20T06:32:44;99675.65;;;5.14;98.25
59417;BME280;45222;52.458;20.914;2023-12-20T06:36:31;99673.14;;;5.16;98.27
59417;BME280;45222;52.458;20.914;2023-12-20T06:40:19;99671.27;;;5.14;98.48
59417;BME280;45222;52.458;20.914;2023-12-20T06:44:07;99674.02;;;5.15;98.32
59417;BME280;45222;52.458;20.914;2023-12-20T06:47:55;99672.36;;;5.18;98.51
59417;BME280;45222;52.458;20.914;2023-12-20T06:51:43;99675.20;;;5.17;98.21
59417;BME280;45222;52.458;20.914;2023-12-20T06:55:31;99680.23;;;5.15;98.11
59417;BME280;45222;52.458;20.914;2023-12-20T06:59:19;99682.70;;;5.14;98.19
59417;BME280;45222;52.458;20.914;2023-12-20T07:03:07;99676.67;;;5.15;98.05
59417;BME280;45222;52.458;20.914;2023-12-20T07:06:55;99675.24;;;5.16;98.43
59417;BME280;45222;52.458;20.914;2023-12-20T07:10:46;99675.36;;;5.17;98.33
59417;BME280;45222;52.458;20.914;2023-12-20T07:14:34;99673.39;;;5.18;98.40
59417;BME280;45222;52.458;20.914;2023-12-20T07:18:22;99674.20;;;5.20;98.42
59417;BME280;45222;52.458;20.914;2023-12-20T07:22:10;99678.34;;;5.18;98.33
59417;BME280;45222;52.458;20.914;2023-12-20T07:25:58;99676.27;;;5.17;98.16
59417;BME280;45222;52.458;20.914;2023-12-20T07:29:46;99674.48;;;5.17;98.18
59417;BME280;45222;52.458;20.914;2023-12-20T07:33:33;99679.73;;;5.19;98.23
59417;BME280;45222;52.458;20.914;2023-12-20T07:37:22;99681.89;;;5.22;98.34
59417;BME280;45222;52.458;20.914;2023-12-20T07:41:10;99684.83;;;5.23;98.22
59417;BME280;45222;52.458;20.914;2023-12-20T07:44:58;99682.83;;;5.25;98.26
59417;BME280;45222;52.458;20.914;2023-12-20T07:48:46;99683.02;;;5.25;98.37
59417;BME280;45222;52.458;20.914;2023-12-20T07:52:35;99680.66;;;5.22;98.23
59417;BME280;45222;52.458;20.914;2023-12-20T07:56:22;99677.35;;;5.21;98.24
59417;BME280;45222;52.458;20.914;2023-12-20T08:00:12;99673.29;;;5.21;98.36
59417;BME280;45222;52.458;20.914;2023-12-20T08:04:00;99669.36;;;5.22;98.34
59417;BME280;45222;52.458;20.914;2023-12-20T08:07:48;99673.46;;;5.26;98.28
59417;BME280;45222;52.458;20.914;2023-12-20T08:11:36;99674.77;;;5.29;98.44
59417;BME280;45222;52.458;20.914;2023-12-20T08:15:24;99672.52;;;5.32;98.60
59417;BME280;45222;52.458;20.914;2023-12-20T08:19:12;99667.48;;;5.35;98.49
59417;BME280;45222;52.458;20.914;2023-12-20T08:23:00;99666.61;;;5.34;98.65
59417;BME280;45222;52.458;20.914;2023-12-20T08:26:48;99663.27;;;5.34;98.53
59417;BME280;45222;52.458;20.914;2023-12-20T08:30:36;99664.27;;;5.36;98.26
59417;BME280;45222;52.458;20.914;2023-12-20T08:34:24;99657.09;;;5.39;98.49
59417;BME280;45222;52.458;20.914;2023-12-20T08:38:12;99656.83;;;5.42;98.41
59417;BME280;45222;52.458;20.914;2023-12-20T08:42:01;99651.09;;;5.44;98.41
59417;BME280;45222;52.458;20.914;2023-12-20T08:45:49;99658.94;;;5.46;98.33
59417;BME280;45222;52.458;20.914;2023-12-20T08:49:37;99655.80;;;5.45;98.32
59417;BME280;45222;52.458;20.914;2023-12-20T08:53:25;99652.02;;;5.43;98.27
59417;BME280;45222;52.458;20.914;2023-12-20T08:57:13;99645.27;;;5.44;98.08
59417;BME280;45222;52.458;20.914;2023-12-20T09:01:01;99644.35;;;5.45;98.22
59417;BME280;45222;52.458;20.914;2023-12-20T09:04:49;99638.13;;;5.46;98.37
59417;BME280;45222;52.458;20.914;2023-12-20T09:08:37;99629.42;;;5.48;98.29
59417;BME280;45222;52.458;20.914;2023-12-20T09:12:25;99633.58;;;5.49;98.29
59417;BME280;45222;52.458;20.914;2023-12-20T09:16:14;99626.45;;;5.52;98.45
59417;BME280;45222;52.458;20.914;2023-12-20T09:20:03;99623.69;;;5.54;98.25
59417;BME280;45222;52.458;20.914;2023-12-20T09:23:53;99623.52;;;5.54;98.18
59417;BME280;45222;52.458;20.914;2023-12-20T09:27:41;99622.76;;;5.51;97.95
59417;BME280;45222;52.458;20.914;2023-12-20T09:31:29;99616.96;;;5.51;98.05
59417;BME280;45222;52.458;20.914;2023-12-20T09:35:17;99611.02;;;5.50;98.13
59417;BME280;45222;52.458;20.914;2023-12-20T09:39:05;99610.64;;;5.50;98.06
59417;BME280;45222;52.458;20.914;2023-12-20T09:42:57;99609.38;;;5.51;98.09
59417;BME280;45222;52.458;20.914;2023-12-20T09:46:50;99608.46;;;5.52;98.12
59417;BME280;45222;52.458;20.914;2023-12-20T09:50:40;99600.35;;;5.52;98.04
59417;BME280;45222;52.458;20.914;2023-12-20T09:54:30;99601.66;;;5.50;97.86
59417;BME280;45222;52.458;20.914;2023-12-20T09:58:18;99602.50;;;5.46;97.77
59417;BME280;45222;52.458;20.914;2023-12-20T10:02:12;99599.56;;;5.45;97.73
59417;BME280;45222;52.458;20.914;2023-12-20T10:06:02;99590.57;;;5.45;97.83
59417;BME280;45222;52.458;20.914;2023-12-20T10:09:51;99595.30;;;5.46;98.01
59417;BME280;45222;52.458;20.914;2023-12-20T10:13:42;99586.65;;;5.46;98.01
59417;BME280;45222;52.458;20.914;2023-12-20T10:17:30;99591.94;;;5.46;97.87
59417;BME280;45222;52.458;20.914;2023-12-20T10:21:19;99592.01;;;5.44;98.04
59417;BME280;45222;52.458;20.914;2023-12-20T10:25:09;99592.63;;;5.42;98.04
59417;BME280;45222;52.458;20.914;2023-12-20T10:28:59;99586.98;;;5.42;97.98
59417;BME280;45222;52.458;20.914;2023-12-20T10:32:47;99586.89;;;5.44;97.82
59417;BME280;45222;52.458;20.914;2023-12-20T10:36:35;99583.80;;;5.47;97.97
59417;BME280;45222;52.458;20.914;2023-12-20T10:40:23;99582.25;;;5.50;97.87
59417;BME280;45222;52.458;20.914;2023-12-20T10:44:14;99582.29;;;5.54;97.81
59417;BME280;45222;52.458;20.914;2023-12-20T10:48:01;99581.44;;;5.57;97.94
59417;BME280;45222;52.458;20.914;2023-12-20T10:51:50;99576.36;;;5.56;97.98
59417;BME280;45222;52.458;20.914;2023-12-20T10:55:40;99579.94;;;5.55;97.63
59417;BME280;45222;52.458;20.914;2023-12-20T10:59:30;99579.89;;;5.56;97.53
59417;BME280;45222;52.458;20.914;2023-12-20T11:03:21;99570.37;;;5.56;97.63
59417;BME280;45222;52.458;20.914;2023-12-20T11:07:19;99558.81;;;5.58;97.38
59417;BME280;45222;52.458;20.914;2023-12-20T11:11:14;99550.73;;;5.62;97.60
59417;BME280;45222;52.458;20.914;2023-12-20T11:15:08;99542.13;;;5.65;97.27
59417;BME280;45222;52.458;20.914;2023-12-20T11:18:56;99536.60;;;5.67;97.32
59417;BME280;45222;52.458;20.914;2023-12-20T11:22:54;99528.77;;;5.68;97.11
59417;BME280;45222;52.458;20.914;2023-12-20T11:30:15;99528.22;;;5.64;96.60
59417;BME280;45222;52.458;20.914;2023-12-20T11:34:15;99523.63;;;5.60;96.86
59417;BME280;45222;52.458;20.914;2023-12-20T11:38:05;99519.23;;;5.60;96.81
59417;BME280;45222;52.458;20.914;2023-12-20T11:41:55;99515.48;;;5.61;96.82
59417;BME280;45222;52.458;20.914;2023-12-20T11:45:50;99508.36;;;5.62;96.74
59417;BME280;45222;52.458;20.914;2023-12-20T11:49:38;99505.79;;;5.61;97.00
59417;BME280;45222;52.458;20.914;2023-12-20T11:53:27;99499.77;;;5.57;96.57
59417;BME280;45222;52.458;20.914;2023-12-20T11:57:15;99497.01;;;5.56;96.69
59417;BME280;45222;52.458;20.914;2023-12-20T12:01:04;99495.31;;;5.54;96.58
59417;BME280;45222;52.458;20.914;2023-12-20T12:04:54;99494.16;;;5.52;96.90
59417;BME280;45222;52.458;20.914;2023-12-20T12:08:43;99491.00;;;5.52;97.13
59417;BME280;45222;52.458;20.914;2023-12-20T12:12:31;99491.19;;;5.52;96.94
59417;BME280;45222;52.458;20.914;2023-12-20T12:16:20;99477.77;;;5.48;96.73
59417;BME280;45222;52.458;20.914;2023-12-20T12:20:09;99474.30;;;5.46;96.51
59417;BME280;45222;52.458;20.914;2023-12-20T12:24:07;99466.80;;;5.44;96.48
59417;BME280;45222;52.458;20.914;2023-12-20T12:27:56;99465.34;;;5.45;96.37
59417;BME280;45222;52.458;20.914;2023-12-20T12:31:45;99466.16;;;5.47;96.31
59417;BME280;45222;52.458;20.914;2023-12-20T12:35:33;99467.45;;;5.46;96.36
59417;BME280;45222;52.458;20.914;2023-12-20T12:39:22;99468.89;;;5.45;96.44
59417;BME280;45222;52.458;20.914;2023-12-20T12:43:11;99458.33;;;5.44;96.41
59417;BME280;45222;52.458;20.914;2023-12-20T12:46:59;99456.86;;;5.42;96.14
59417;BME280;45222;52.458;20.914;2023-12-20T12:50:48;99456.46;;;5.39;95.59
59417;BME280;45222;52.458;20.914;2023-12-20T12:54:38;99457.77;;;5.37;95.53
59417;BME280;45222;52.458;20.914;2023-12-20T12:58:26;99454.37;;;5.34;95.38
59417;BME280;45222;52.458;20.914;2023-12-20T13:02:15;99452.72;;;5.31;95.39
59417;BME280;45222;52.458;20.914;2023-12-20T13:06:03;99458.79;;;5.29;95.39
59417;BME280;45222;52.458;20.914;2023-12-20T13:09:52;99453.90;;;5.28;95.31
59417;BME280;45222;52.458;20.914;2023-12-20T13:13:40;99465.19;;;5.23;94.97
59417;BME280;45222;52.458;20.914;2023-12-20T13:17:28;99464.33;;;5.18;94.87
59417;BME280;45222;52.458;20.914;2023-12-20T13:21:16;99464.92;;;5.17;94.87
59417;BME280;45222;52.458;20.914;2023-12-20T13:25:05;99463.93;;;5.15;94.72
59417;BME280;45222;52.458;20.914;2023-12-20T13:28:53;99465.51;;;5.16;94.60
59417;BME280;45222;52.458;20.914;2023-12-20T13:32:41;99456.06;;;5.14;94.43
59417;BME280;45222;52.458;20.914;2023-12-20T13:36:29;99451.85;;;5.09;93.84
59417;BME280;45222;52.458;20.914;2023-12-20T13:40:17;99452.44;;;5.03;93.67
59417;BME280;45222;52.458;20.914;2023-12-20T13:44:05;99450.39;;;4.97;93.22
59417;BME280;45222;52.458;20.914;2023-12-20T13:47:53;99444.98;;;4.92;93.14
59417;BME280;45222;52.458;20.914;2023-12-20T13:51:41;99448.00;;;4.87;92.88
59417;BME280;45222;52.458;20.914;2023-12-20T13:55:28;99445.11;;;4.79;92.35
59417;BME280;45222;52.458;20.914;2023-12-20T13:59:17;99450.34;;;4.72;91.87
59417;BME280;45222;52.458;20.914;2023-12-20T14:03:05;99450.00;;;4.67;91.92
59417;BME280;45222;52.458;20.914;2023-12-20T14:06:53;99446.59;;;4.64;91.71
59417;BME280;45222;52.458;20.914;2023-12-20T14:10:42;99444.01;;;4.62;92.05
59417;BME280;45222;52.458;20.914;2023-12-20T14:14:30;99431.41;;;4.60;91.75
59417;BME280;45222;52.458;20.914;2023-12-20T14:18:18;99433.30;;;4.56;91.54
59417;BME280;45222;52.458;20.914;2023-12-20T14:22:06;99436.08;;;4.53;91.54
59417;BME280;45222;52.458;20.914;2023-12-20T14:25:54;99442.13;;;4.51;91.72
59417;BME280;45222;52.458;20.914;2023-12-20T14:29:45;99441.30;;;4.50;91.83
59417;BME280;45222;52.458;20.914;2023-12-20T14:33:32;99444.86;;;4.49;91.85
59417;BME280;45222;52.458;20.914;2023-12-20T14:37:20;99441.63;;;4.46;91.90
59417;BME280;45222;52.458;20.914;2023-12-20T14:41:08;99439.27;;;4.43;91.86
59417;BME280;45222;52.458;20.914;2023-12-20T14:44:56;99443.76;;;4.41;91.98
59417;BME280;45222;52.458;20.914;2023-12-20T14:48:44;99439.90;;;4.41;92.14
59417;BME280;45222;52.458;20.914;2023-12-20T14:52:33;99440.42;;;4.41;92.22
59417;BME280;45222;52.458;20.914;2023-12-20T14:56:21;99438.66;;;4.41;92.20
59417;BME280;45222;52.458;20.914;2023-12-20T15:00:09;99440.21;;;4.37;91.94
59417;BME280;45222;52.458;20.914;2023-12-20T15:04:01;99445.98;;;4.34;91.91
59417;BME280;45222;52.458;20.914;2023-12-20T15:07:51;99440.89;;;4.33;91.81
59417;BME280;45222;52.458;20.914;2023-12-20T15:11:39;99437.71;;;4.33;91.52
59417;BME280;45222;52.458;20.914;2023-12-20T15:15:27;99432.59;;;4.34;91.53
59417;BME280;45222;52.458;20.914;2023-12-20T15:19:16;99430.55;;;4.32;90.97
59417;BME280;45222;52.458;20.914;2023-12-20T15:23:04;99429.03;;;4.31;90.76
59417;BME280;45222;52.458;20.914;2023-12-20T15:26:54;99430.27;;;4.30;90.64
59417;BME280;45222;52.458;20.914;2023-12-20T15:30:42;99427.45;;;4.30;90.54
59417;BME280;45222;52.458;20.914;2023-12-20T15:34:30;99420.00;;;4.27;90.41
59417;BME280;45222;52.458;20.914;2023-12-20T15:38:18;99414.59;;;4.26;90.33
59417;BME280;45222;52.458;20.914;2023-12-20T15:42:06;99414.07;;;4.26;90.39
59417;BME280;45222;52.458;20.914;2023-12-20T15:45:54;99410.61;;;4.24;90.37
59417;BME280;45222;52.458;20.914;2023-12-20T15:49:43;99402.69;;;4.24;90.35
59417;BME280;45222;52.458;20.914;2023-12-20T15:53:32;99391.67;;;4.22;90.21
59417;BME280;45222;52.458;20.914;2023-12-20T15:57:20;99389.42;;;4.21;90.23
59417;BME280;45222;52.458;20.914;2023-12-20T16:01:08;99379.58;;;4.21;89.91
59417;BME280;45222;52.458;20.914;2023-12-20T16:04:55;99380.81;;;4.21;89.85
59417;BME280;45222;52.458;20.914;2023-12-20T16:08:44;99382.95;;;4.20;89.95
59417;BME280;45222;52.458;20.914;2023-12-20T16:12:31;99380.42;;;4.17;89.68
59417;BME280;45222;52.458;20.914;2023-12-20T16:16:19;99375.17;;;4.16;89.80
59417;BME280;45222;52.458;20.914;2023-12-20T16:20:09;99373.77;;;4.16;89.81
59417;BME280;45222;52.458;20.914;2023-12-20T16:23:57;99370.38;;;4.18;90.11
59417;BME280;45222;52.458;20.914;2023-12-20T16:27:45;99372.52;;;4.17;89.90
59417;BME280;45222;52.458;20.914;2023-12-20T16:31:33;99375.86;;;4.17;89.38
59417;BME280;45222;52.458;20.914;2023-12-20T16:35:20;99375.41;;;4.14;89.25
59417;BME280;45222;52.458;20.914;2023-12-20T16:39:08;99375.00;;;4.16;89.16
59417;BME280;45222;52.458;20.914;2023-12-20T16:42:56;99371.81;;;4.17;88.92
59417;BME280;45222;52.458;20.914;2023-12-20T16:46:45;99360.73;;;4.17;88.94
59417;BME280;45222;52.458;20.914;2023-12-20T16:50:32;99358.25;;;4.17;88.42
59417;BME280;45222;52.458;20.914;2023-12-20T16:54:20;99357.52;;;4.17;88.37
59417;BME280;45222;52.458;20.914;2023-12-20T16:58:09;99356.52;;;4.17;88.11
59417;BME280;45222;52.458;20.914;2023-12-20T17:02:05;99357.91;;;4.17;87.85
59417;BME280;45222;52.458;20.914;2023-12-20T17:05:53;99361.74;;;4.18;88.16
59417;BME280;45222;52.458;20.914;2023-12-20T17:09:41;99355.39;;;4.19;88.18
59417;BME280;45222;52.458;20.914;2023-12-20T17:13:31;99353.50;;;4.17;88.13
59417;BME280;45222;52.458;20.914;2023-12-20T17:17:19;99355.19;;;4.14;88.29
59417;BME280;45222;52.458;20.914;2023-12-20T17:21:07;99358.38;;;4.13;88.25
59417;BME280;45222;52.458;20.914;2023-12-20T17:24:56;99354.34;;;4.13;88.03
59417;BME280;45222;52.458;20.914;2023-12-20T17:28:44;99344.53;;;4.12;87.88
59417;BME280;45222;52.458;20.914;2023-12-20T17:32:32;99342.11;;;4.11;87.93
59417;BME280;45222;52.458;20.914;2023-12-20T17:36:23;99339.60;;;4.12;87.99
59417;BME280;45222;52.458;20.914;2023-12-20T17:40:12;99333.77;;;4.13;87.90
59417;BME280;45222;52.458;20.914;2023-12-20T17:44:01;99314.07;;;4.13;87.77
59417;BME280;45222;52.458;20.914;2023-12-20T17:47:49;99314.93;;;4.13;87.53
59417;BME280;45222;52.458;20.914;2023-12-20T17:51:37;99311.55;;;4.14;87.68
59417;BME280;45222;52.458;20.914;2023-12-20T17:55:25;99301.85;;;4.15;87.62
59417;BME280;45222;52.458;20.914;2023-12-20T17:59:13;99297.79;;;4.15;87.20
59417;BME280;45222;52.458;20.914;2023-12-20T18:03:01;99296.29;;;4.18;87.41
59417;BME280;45222;52.458;20.914;2023-12-20T18:06:49;99288.30;;;4.19;87.84
59417;BME280;45222;52.458;20.914;2023-12-20T18:10:37;99293.23;;;4.19;87.72
59417;BME280;45222;52.458;20.914;2023-12-20T18:14:24;99296.34;;;4.16;87.92
59417;BME280;45222;52.458;20.914;2023-12-20T18:18:12;99292.77;;;4.13;88.18
59417;BME280;45222;52.458;20.914;2023-12-20T18:22:00;99292.55;;;4.10;88.19
59417;BME280;45222;52.458;20.914;2023-12-20T18:25:48;99289.71;;;4.05;88.74
59417;BME280;45222;52.458;20.914;2023-12-20T18:29:40;99285.02;;;4.00;89.15
59417;BME280;45222;52.458;20.914;2023-12-20T18:33:28;99279.71;;;3.96;89.36
59417;BME280;45222;52.458;20.914;2023-12-20T18:37:19;99270.52;;;3.93;89.77
59417;BME280;45222;52.458;20.914;2023-12-20T18:41:07;99270.02;;;3.92;90.14
59417;BME280;45222;52.458;20.914;2023-12-20T18:44:55;99274.14;;;3.90;90.59
59417;BME280;45222;52.458;20.914;2023-12-20T18:48:43;99267.64;;;3.90;90.75
59417;BME280;45222;52.458;20.914;2023-12-20T18:52:31;99267.28;;;3.90;90.92
59417;BME280;45222;52.458;20.914;2023-12-20T18:56:19;99267.89;;;3.88;91.11
59417;BME280;45222;52.458;20.914;2023-12-20T19:00:10;99267.95;;;3.86;91.22
59417;BME280;45222;52.458;20.914;2023-12-20T19:03:58;99268.15;;;3.85;91.28
59417;BME280;45222;52.458;20.914;2023-12-20T19:07:46;99262.35;;;3.85;91.60
59417;BME280;45222;52.458;20.914;2023-12-20T19:11:35;99260.65;;;3.88;91.37
59417;BME280;45222;52.458;20.914;2023-12-20T19:15:23;99261.81;;;3.90;91.44
59417;BME280;45222;52.458;20.914;2023-12-20T19:19:11;99264.40;;;3.92;91.02
59417;BME280;45222;52.458;20.914;2023-12-20T19:22:59;99262.64;;;3.92;90.71
59417;BME280;45222;52.458;20.914;2023-12-20T19:26:47;99259.39;;;3.94;90.77
59417;BME280;45222;52.458;20.914;2023-12-20T19:30:34;99259.36;;;3.94;90.70
59417;BME280;45222;52.458;20.914;2023-12-20T19:34:22;99258.85;;;3.94;90.07
59417;BME280;45222;52.458;20.914;2023-12-20T19:38:10;99260.23;;;3.95;89.72
59417;BME280;45222;52.458;20.914;2023-12-20T19:41:58;99268.42;;;3.92;89.48
59417;BME280;45222;52.458;20.914;2023-12-20T19:45:46;99262.39;;;3.89;89.25
59417;BME280;45222;52.458;20.914;2023-12-20T19:49:34;99270.06;;;3.86;89.46
59417;BME280;45222;52.458;20.914;2023-12-20T19:53:22;99268.92;;;3.84;89.32
59417;BME280;45222;52.458;20.914;2023-12-20T19:57:12;99276.31;;;3.79;89.08
59417;BME280;45222;52.458;20.914;2023-12-20T20:01:00;99283.61;;;3.72;88.55
59417;BME280;45222;52.458;20.914;2023-12-20T20:04:48;99291.75;;;3.66;88.65
59417;BME280;45222;52.458;20.914;2023-12-20T20:08:36;99294.42;;;3.60;88.53
59417;BME280;45222;52.458;20.914;2023-12-20T20:12:23;99304.14;;;3.55;88.60